Airport Name : Bratsk

Other Name : Bratsk

ICAO : UIBB

IATA : BTK

FAA :

Latitude : 56.370556

Longitude : 101.698331

Country : Russia

Local Date and Time : 4/24/2018 7:17:00 AM

 

TAF (Terminal Aerodrome Forecast)

TAF UIBB 232000Z 2321/2421 10003G08MPS 9999 -SHRA SCT003 BKN011CB

 

METAR (METeorological Aerodrome Report)

UIBB 232300Z 05002MPS 9999 NSC 07/05 Q1009 R30/60D NOSIG RMK QFE714/0952

UIBB 232230Z 03002MPS 9999 NSC 07/05 Q1009 R30/60D NOSIG RMK QFE714/0952

UIBB 232200Z 05002MPS 9999 NSC 06/05 Q1009 R30/60D NOSIG RMK QFE714/0952

UIBB 232130Z AUTO 27003MPS 9999 // ///070/// 06/05 Q1010 RMK QFE714/0953

UIBB 232100Z AUTO 27002MPS 9999 // ///092/// 07/05 Q1010 RMK QFE715/0953

UIBB 232030Z AUTO 27002MPS 9999 // NSC 06/05 Q1010 RMK QFE715/0953

UIBB 232000Z AUTO 27002MPS 9999 // ///080/// 06/05 Q1010 RMK QFE715/0954

UIBB 231930Z AUTO 27002MPS 9999 // ///075/// 06/05 Q1011 RMK QFE715/0954